Time;durP1;ratioP1;P1;durP2;ratioP2;P2;SDS_P1;SDS_P2;PMS_P1;PMS_P2;Temp;Humidity;BMP_temperature;BMP_pressure;BME280_temperature;BME280_humidity;BME280_pressure;Samples;Min_cycle;Max_cycle;Signal;HPM_P1;HPM_P2
2023/02/20 00:01:33;;;;;;;10.57;3.45;;;6.30;99.90;;;6.16;100.00;98827.75;5019997;28;20135;-67
2023/02/20 00:04:00;;;;;;;14.50;4.88;;;6.30;99.90;;;6.28;100.00;98832.84;5025048;28;20053;-67
2023/02/20 00:06:27;;;;;;;14.80;4.88;;;6.30;99.90;;;6.14;100.00;98852.69;5026718;28;20084;-67
2023/02/20 00:08:54;;;;;;;11.27;4.18;;;6.20;99.90;;;6.17;100.00;98851.81;5026802;28;20046;-67
2023/02/20 00:11:21;;;;;;;11.73;4.05;;;6.20;99.90;;;6.30;100.00;98860.38;5025571;28;20060;-67
2023/02/20 00:13:48;;;;;;;10.63;4.25;;;6.20;99.90;;;6.18;100.00;98859.56;5023220;28;20053;-67
2023/02/20 00:16:16;;;;;;;16.08;4.97;;;6.20;99.90;;;6.15;100.00;98859.53;5009984;28;20049;-66
2023/02/20 00:18:44;;;;;;;11.02;3.90;;;6.10;99.90;;;6.17;100.00;98864.72;5024464;28;20104;-67
2023/02/20 00:21:11;;;;;;;12.52;4.20;;;6.10;99.90;;;6.06;100.00;98869.91;5023652;28;20480;-67
2023/02/20 00:23:39;;;;;;;11.35;3.90;;;6.10;99.90;;;6.03;100.00;98855.31;5024598;28;20053;-67
2023/02/20 00:26:11;;;;;;;14.10;4.90;;;6.00;99.90;;;5.70;100.00;98855.38;5040749;28;20127;-67
2023/02/20 00:28:39;;;;;;;;;;;6.00;99.90;;;5.11;100.00;98857.16;5024213;28;20053;-67
2023/02/20 00:31:11;;;;;;;12.70;5.80;;;5.90;99.90;;;4.94;100.00;98868.31;5025103;28;19933;-67
2023/02/20 00:33:38;;;;;;;14.48;5.90;;;5.70;99.90;;;4.84;100.00;98868.31;5023603;28;20084;-67
2023/02/20 00:36:06;;;;;;;18.65;5.97;;;5.60;99.90;;;4.91;100.00;98870.91;5022499;28;20050;-67
2023/02/20 00:38:33;;;;;;;12.80;7.00;;;5.50;99.90;;;4.75;100.00;98872.59;5025861;28;20071;-67
2023/02/20 00:41:00;;;;;;;12.75;5.07;;;5.40;99.90;;;5.02;100.00;98888.94;5020234;28;20397;-67
2023/02/20 00:43:27;;;;;;;18.20;6.13;;;5.30;99.90;;;5.07;100.00;98882.06;5025943;28;20073;-68
2023/02/20 00:45:54;;;;;;;13.93;5.05;;;5.30;99.90;;;5.16;100.00;98873.50;5021517;28;20053;-67
2023/02/20 00:48:21;;;;;;;10.13;4.85;;;5.30;99.90;;;5.15;100.00;98875.19;5027443;28;20070;-67
2023/02/20 00:50:48;;;;;;;18.45;6.05;;;5.30;99.90;;;5.21;100.00;98864.88;5019899;28;20052;-67
2023/02/20 00:53:15;;;;;;;12.75;5.53;;;5.40;99.90;;;5.30;100.00;98876.91;5020870;28;20060;-66
2023/02/20 00:55:42;;;;;;;13.65;5.07;;;5.40;99.90;;;5.39;100.00;98878.63;5018113;28;20068;-66
2023/02/20 00:58:09;;;;;;;11.88;5.05;;;5.50;99.90;;;5.55;100.00;98885.47;5022872;28;20493;-67
2023/02/20 01:00:36;;;;;;;14.90;5.20;;;5.60;99.90;;;5.47;100.00;98879.44;5022990;28;20101;-67
2023/02/20 01:03:03;;;;;;;17.20;4.47;;;5.60;99.90;;;5.49;100.00;98876.88;5024314;28;20037;-67
2023/02/20 01:05:30;;;;;;;13.27;5.05;;;5.70;99.90;;;5.50;100.00;98891.50;5024421;28;20570;-67
2023/02/20 01:07:57;;;;;;;14.40;4.90;;;5.60;99.90;;;5.45;100.00;98889.78;5017769;28;20076;-67
2023/02/20 01:10:24;;;;;;;14.15;5.43;;;5.70;99.90;;;5.60;100.00;98903.47;5013482;28;20058;-67
2023/02/20 01:12:51;;;;;;;11.85;5.40;;;5.70;99.90;;;5.42;100.00;98892.34;5022461;28;20137;-67
2023/02/20 01:15:18;;;;;;;12.75;4.90;;;5.60;99.90;;;5.44;100.00;98887.19;5023648;28;20392;-67
2023/02/20 01:17:45;;;;;;;16.90;5.28;;;5.60;99.90;;;5.33;100.00;98888.91;5021214;28;20583;-67
2023/02/20 01:20:12;;;;;;;12.30;5.22;;;5.60;99.90;;;5.23;100.00;98891.50;5021605;28;20218;-67
2023/02/20 01:22:40;;;;;;;15.20;4.90;;;5.60;99.90;;;5.42;100.00;98874.31;5021639;28;20042;-67
2023/02/20 01:25:07;;;;;;;10.32;5.50;;;5.50;99.90;;;5.40;100.00;98877.75;5021859;28;20188;-67
2023/02/20 01:27:34;;;;;;;13.82;5.95;;;5.50;99.90;;;5.31;100.00;98877.75;5024237;28;20164;-67
2023/02/20 01:30:01;;;;;;;11.70;4.45;;;5.50;99.90;;;5.18;100.00;98876.94;5023062;28;20445;-67
2023/02/20 01:32:28;;;;;;;12.30;5.15;;;5.50;99.90;;;5.20;100.00;98870.03;5022824;28;20056;-67
2023/02/20 01:34:55;;;;;;;11.95;5.65;;;5.50;99.90;;;5.16;100.00;98871.75;5021975;28;20056;-67
2023/02/20 01:37:22;;;;;;;16.20;6.43;;;5.50;99.90;;;4.97;100.00;98885.47;5023081;28;20073;-67
2023/02/20 01:39:50;;;;;;;15.73;6.30;;;5.40;99.90;;;4.96;100.00;98883.75;5021363;28;20393;-66
2023/02/20 01:42:23;;;;;;;13.32;5.10;;;5.40;99.90;;;4.90;100.00;98891.47;5026637;28;20049;-66
2023/02/20 01:44:50;;;;;;;18.23;6.30;;;5.40;99.90;;;4.92;100.00;98888.03;5024595;28;20440;-67
2023/02/20 01:47:22;;;;;;;15.38;5.55;;;5.30;99.90;;;4.78;100.00;98900.03;5024405;28;20057;-66
2023/02/20 01:50:02;;;;;;;18.80;5.88;;;5.30;99.90;;;4.88;100.00;98904.34;5026515;28;20054;-67
2023/02/20 01:52:32;;;;;;;14.70;6.40;;;5.30;99.90;;;4.82;100.00;98899.19;5027852;28;20056;-67
2023/02/20 01:55:23;;;;;;;11.40;5.60;;;5.20;99.90;;;4.82;100.00;98900.03;5025642;28;20049;-67
2023/02/20 01:58:00;;;;;;;16.52;6.65;;;5.20;99.90;;;4.66;100.00;98895.72;5023366;28;20140;-67
2023/02/20 02:00:27;;;;;;;17.40;6.45;;;5.20;99.90;;;4.58;100.00;98890.56;5024884;28;20072;-67
2023/02/20 02:02:57;;;;;;;18.15;6.35;;;5.10;99.90;;;4.42;100.00;98898.22;5023389;28;20130;-66
2023/02/20 02:05:25;;;;;;;13.98;6.13;;;5.10;99.90;;;4.56;100.00;98896.53;5026139;28;20055;-66
2023/02/20 02:07:52;;;;;;;15.52;6.30;;;5.10;99.90;;;4.61;100.00;98895.72;5025975;28;20057;-67
2023/02/20 02:10:30;;;;;;;18.13;6.28;;;5.10;99.90;;;4.58;100.00;98884.56;5026203;28;20060;-67
2023/02/20 02:12:57;;;;;;;14.57;6.05;;;5.10;99.90;;;4.64;100.00;98891.44;5019444;28;20137;-67
2023/02/20 02:15:24;;;;;;;18.23;7.35;;;5.00;99.90;;;4.67;100.00;98882.00;5026937;28;20250;-67
2023/02/20 02:18:16;;;;;;;20.20;6.60;;;5.00;99.90;;;4.59;100.00;98887.13;5027943;28;20049;-67
2023/02/20 02:21:06;;;;;;;17.67;6.93;;;5.00;99.90;;;4.50;100.00;98893.97;5024436;28;20137;-67
2023/02/20 02:24:48;;;;;;;17.05;7.00;;;4.90;99.90;;;4.43;100.00;98879.38;5030250;28;20060;-67
2023/02/20 02:27:58;;;;;;;10.52;6.10;;;4.80;99.90;;;4.50;100.00;98875.97;4947821;28;20430;-67
2023/02/20 02:30:46;;;;;;;19.05;7.28;;;4.80;99.90;;;4.32;100.00;98880.19;4949013;28;20066;-67
2023/02/20 02:33:31;;;;;;;14.65;6.93;;;4.80;99.90;;;4.42;100.00;98886.22;5026911;28;20551;-67
2023/02/20 02:36:19;;;;;;;27.00;7.93;;;4.80;99.90;;;4.29;100.00;98885.34;5022125;28;20058;-67
2023/02/20 02:39:41;;;;;;;23.10;7.82;;;4.80;99.90;;;4.32;100.00;98893.06;5024983;28;20080;-67
2023/02/20 02:42:27;;;;;;;16.52;6.70;;;4.80;99.90;;;4.38;100.00;98893.09;5014545;28;20045;-67
2023/02/20 02:45:22;;;;;;;22.38;7.82;;;4.80;99.90;;;4.29;100.00;98890.47;5025619;28;20495;-67
2023/02/20 02:47:59;;;;;;;19.55;7.93;;;4.70;99.90;;;4.22;100.00;98883.59;5026430;28;20118;-67
2023/02/20 02:50:35;;;;;;;17.10;8.05;;;4.70;99.90;;;4.18;100.00;98881.88;5023912;28;20077;-67
2023/02/20 02:53:04;;;;;;;20.27;8.68;;;4.60;99.90;;;4.13;100.00;98881.84;5028959;28;20057;-67
2023/02/20 02:55:35;;;;;;;21.50;8.77;;;4.70;99.90;;;4.19;100.00;98870.72;5025397;28;20144;-67
2023/02/20 02:58:04;;;;;;;18.40;8.50;;;4.70;99.90;;;4.24;100.00;98878.44;5023696;28;20045;-67
2023/02/20 03:01:02;;;;;;;24.25;9.05;;;4.70;99.90;;;4.15;100.00;98877.59;5026246;28;20061;-67
2023/02/20 03:03:34;;;;;;;19.17;8.63;;;4.70;99.90;;;4.33;100.00;98876.78;5024334;28;20180;-67
2023/02/20 03:06:28;;;;;;;21.35;9.40;;;4.80;99.90;;;4.50;100.00;98861.41;5025848;28;20083;-67
2023/02/20 03:09:27;;;;;;;20.50;8.10;;;4.80;99.90;;;4.55;100.00;98854.56;5023909;28;20081;-67
2023/02/20 03:11:57;;;;;;;16.33;7.80;;;4.80;99.90;;;4.53;100.00;98845.97;5018760;28;20053;-67
2023/02/20 03:17:42;;;;;;;22.83;9.05;;;4.80;99.90;;;4.40;100.00;98847.69;5024485;28;20061;-67
2023/02/20 03:20:14;;;;;;;22.42;10.77;;;4.90;99.90;;;4.48;100.00;98842.53;5023701;28;20125;-67
2023/02/20 03:22:51;;;;;;;16.83;9.03;;;4.80;99.90;;;4.51;100.00;98845.09;5022447;28;20050;-67
2023/02/20 03:25:38;;;;;;;20.02;8.85;;;4.70;99.90;;;4.39;100.00;98832.25;5032351;28;20140;-67
2023/02/20 03:28:11;;;;;;;27.40;9.77;;;4.70;99.90;;;4.18;100.00;98841.59;5022946;28;20041;-66
2023/02/20 03:31:13;;;;;;;16.00;8.20;;;4.70;99.90;;;4.00;100.00;98854.38;5017014;28;20045;-66
2023/02/20 03:45:36;;;;;;;22.90;9.43;;;4.50;99.90;;;4.08;100.00;98839.00;5024177;28;20642;-66
2023/02/20 03:48:13;;;;;;;22.00;8.52;;;4.50;99.90;;;4.02;100.00;98849.25;5024790;28;20504;-66
2023/02/20 03:53:27;;;;;;;26.90;10.80;;;4.50;99.90;;;3.94;100.00;98854.34;5026247;28;20095;-66
2023/02/20 03:55:58;;;;;;;20.85;9.52;;;4.40;99.90;;;4.12;100.00;98846.72;5023051;28;20423;-66
2023/02/20 03:58:28;;;;;;;17.95;8.90;;;4.40;99.90;;;4.03;100.00;98838.97;5019982;28;20056;-67
2023/02/20 04:00:57;;;;;;;18.85;9.32;;;4.40;99.90;;;4.07;100.00;98845.84;5027084;28;20064;-67
2023/02/20 04:03:29;;;;;;;23.77;10.43;;;4.40;99.90;;;3.94;100.00;98851.78;5022596;28;20050;-66
2023/02/20 04:05:59;;;;;;;16.85;8.55;;;4.40;99.90;;;4.01;100.00;98845.81;5025175;28;20060;-67
2023/02/20 04:09:00;;;;;;;19.77;9.73;;;4.30;99.90;;;4.02;100.00;98847.53;5018671;28;20049;-67
2023/02/20 04:11:38;;;;;;;19.98;8.95;;;4.40;99.90;;;4.06;100.00;98851.84;5019192;28;20136;-67
2023/02/20 04:14:07;;;;;;;18.80;8.55;;;4.30;99.90;;;4.10;100.00;98850.13;5023133;28;20328;-66
2023/02/20 04:16:50;;;;;;;17.70;8.55;;;4.30;99.90;;;4.11;100.00;98841.59;5023674;28;20090;-67
2023/02/20 04:19:18;;;;;;;29.08;10.00;;;4.30;99.90;;;3.99;100.00;98844.94;5025153;28;20107;-66
2023/02/20 04:21:54;;;;;;;20.63;8.73;;;4.30;99.90;;;4.12;100.00;98849.28;5025829;28;20053;-66
2023/02/20 04:25:12;;;;;;;20.25;8.70;;;4.20;99.90;;;4.02;100.00;98839.84;5023255;28;20050;-66
2023/02/20 04:27:39;;;;;;;17.58;8.65;;;4.20;99.90;;;3.88;100.00;98837.22;5025676;28;20041;-66
2023/02/20 04:30:10;;;;;;;15.85;7.93;;;4.20;99.90;;;3.88;100.00;98833.78;5024277;28;20044;-67
2023/02/20 04:32:37;;;;;;;19.95;9.95;;;4.20;99.90;;;3.82;100.00;98834.59;5023488;28;20057;-66
2023/02/20 04:35:05;;;;;;;21.58;10.45;;;4.20;99.90;;;3.78;100.00;98845.72;5027441;28;20053;-66
2023/02/20 04:37:32;;;;;;;17.20;8.32;;;4.30;99.90;;;3.86;100.00;98844.06;5022445;28;20049;-66
2023/02/20 04:39:59;;;;;;;17.85;9.90;;;4.30;99.90;;;3.91;100.00;98844.06;5023032;28;20137;-66
2023/02/20 04:42:26;;;;;;;17.17;8.88;;;4.20;99.90;;;3.80;100.00;98851.72;5024180;28;20049;-67
2023/02/20 04:44:53;;;;;;;18.70;9.57;;;4.30;99.90;;;3.97;100.00;98847.53;5022216;28;20420;-66
2023/02/20 04:47:20;;;;;;;20.60;10.00;;;4.30;99.90;;;3.90;100.00;98838.09;5022022;28;20100;-66
2023/02/20 04:49:46;;;;;;;18.40;9.52;;;4.30;99.90;;;3.91;100.00;98844.91;5022637;28;20054;-67
2023/02/20 04:52:13;;;;;;;22.15;9.75;;;4.20;99.90;;;3.96;100.00;98842.38;5019696;28;20088;-67
2023/02/20 04:54:40;;;;;;;20.27;9.23;;;4.20;99.90;;;3.91;100.00;98837.22;5017677;28;20060;-67
2023/02/20 04:57:07;;;;;;;18.35;9.13;;;4.20;99.90;;;3.95;100.00;98830.41;5020006;28;20065;-66
2023/02/20 04:59:34;;;;;;;19.30;8.52;;;4.20;99.90;;;3.93;100.00;98829.53;5021700;28;20053;-66
2023/02/20 05:02:01;;;;;;;16.27;8.00;;;4.20;99.90;;;3.96;100.00;98827.81;5023278;28;20041;-67
2023/02/20 05:04:28;;;;;;;15.32;7.63;;;4.20;99.90;;;4.06;100.00;98832.97;5020300;28;20075;-66
2023/02/20 05:06:56;;;;;;;18.10;8.80;;;4.20;99.90;;;3.97;100.00;98829.53;5021628;28;20095;-67
2023/02/20 05:09:24;;;;;;;20.02;9.07;;;4.30;99.90;;;3.97;100.00;98832.13;5021239;28;20136;-67
2023/02/20 05:11:51;;;;;;;19.92;8.80;;;4.30;99.90;;;4.03;100.00;98831.25;5024089;28;20056;-67
2023/02/20 05:14:20;;;;;;;16.25;8.10;;;4.30;99.90;;;4.01;100.00;98821.84;5027505;28;20049;-67
2023/02/20 05:16:50;;;;;;;21.42;9.85;;;4.30;99.90;;;3.99;100.00;98824.41;5060135;28;20050;-66
2023/02/20 05:19:17;;;;;;;20.27;9.02;;;4.30;99.90;;;3.97;100.00;98824.41;5025035;28;20471;-67
2023/02/20 05:24:31;;;;;;;18.85;8.88;;;4.30;99.90;;;3.92;100.00;98820.97;5027046;28;20049;-67
2023/02/20 05:26:58;;;;;;;19.70;8.35;;;4.20;99.90;;;3.95;100.00;98813.25;5026661;28;20054;-67
2023/02/20 05:29:26;;;;;;;19.27;8.27;;;4.20;99.90;;;3.97;100.00;98819.28;5023427;28;20152;-68
2023/02/20 05:31:53;;;;;;;23.55;9.38;;;4.20;99.90;;;4.03;100.00;98810.72;5028500;28;20072;-67
2023/02/20 05:34:21;;;;;;;17.35;9.20;;;4.20;99.90;;;4.13;100.00;98811.63;5028015;28;20571;-66
2023/02/20 05:36:48;;;;;;;19.83;9.65;;;4.20;99.90;;;3.85;100.00;98816.63;5027589;28;20050;-67
2023/02/20 05:39:15;;;;;;;17.98;8.98;;;4.20;99.90;;;3.90;100.00;98808.94;5027535;28;20049;-68
2023/02/20 05:41:42;;;;;;;20.60;10.30;;;4.30;99.90;;;3.88;100.00;98815.81;5026202;28;20053;-67
2023/02/20 05:44:09;;;;;;;22.08;9.23;;;4.30;99.90;;;3.87;100.00;98811.50;5038822;28;20048;-67
2023/02/20 05:46:41;;;;;;;20.85;9.38;;;4.30;99.90;;;3.88;100.00;98819.25;5023742;28;20177;-67
2023/02/20 05:49:09;;;;;;;19.65;10.50;;;4.40;99.90;;;3.84;100.00;98808.94;5027692;28;20134;-67
2023/02/20 05:51:36;;;;;;;20.73;10.73;;;4.30;99.90;;;3.95;100.00;98812.41;5024707;28;20056;-67
2023/02/20 05:54:04;;;;;;;19.25;9.27;;;4.40;99.90;;;3.90;100.00;98814.97;5026187;28;20058;-66
2023/02/20 05:56:31;;;;;;;23.30;9.00;;;4.30;99.90;;;3.89;100.00;98807.25;5023453;28;20049;-67
2023/02/20 05:58:59;;;;;;;24.85;10.88;;;4.30;99.90;;;3.78;100.00;98808.03;5025298;28;20059;-67
2023/02/20 06:01:29;;;;;;;19.70;10.25;;;4.20;99.90;;;3.87;100.00;98799.53;5018670;28;20041;-68
2023/02/20 06:03:57;;;;;;;23.77;10.68;;;4.20;99.90;;;3.74;100.00;98808.91;5026504;28;20161;-66
2023/02/20 06:06:30;;;;;;;25.20;10.77;;;4.10;99.90;;;3.81;100.00;98806.34;5026422;28;20054;-66
2023/02/20 06:08:58;;;;;;;22.13;10.75;;;4.10;99.90;;;3.75;100.00;98808.03;5024801;28;20053;-67
2023/02/20 06:11:25;;;;;;;25.00;12.30;;;4.10;99.90;;;3.78;100.00;98808.03;5025484;28;20053;-67
2023/02/20 06:13:52;;;;;;;21.95;11.65;;;4.10;99.90;;;3.88;100.00;98806.38;5026820;28;20050;-67
2023/02/20 06:16:27;;;;;;;24.00;12.63;;;4.10;99.90;;;3.82;100.00;98808.94;5024280;28;20516;-67
2023/02/20 06:18:55;;;;;;;23.73;13.57;;;4.10;99.90;;;3.76;100.00;98808.88;5023815;28;20054;-67
2023/02/20 06:21:23;;;;;;;27.75;13.05;;;4.10;99.90;;;3.78;100.00;98802.06;5042749;28;20049;-67
2023/02/20 06:23:54;;;;;;;27.63;14.07;;;4.10;99.90;;;3.77;100.00;98800.34;5025606;28;20128;-67
2023/02/20 06:26:22;;;;;;;26.90;13.00;;;4.10;99.90;;;3.75;100.00;98794.34;5028206;28;20054;-66
2023/02/20 06:28:49;;;;;;;29.90;16.15;;;4.00;99.90;;;3.74;100.00;98802.88;5007102;28;20085;-67
2023/02/20 06:31:27;;;;;;;28.17;14.90;;;4.00;99.90;;;3.85;100.00;98806.34;5024780;28;20128;-67
2023/02/20 06:33:54;;;;;;;27.45;15.25;;;4.10;99.90;;;3.79;100.00;98806.34;5024237;28;20083;-67
2023/02/20 06:36:30;;;;;;;27.88;15.50;;;4.10;99.90;;;3.77;100.00;98798.63;5026472;28;20053;-67
2023/02/20 06:39:02;;;;;;;38.67;18.40;;;4.00;99.90;;;3.69;100.00;98807.16;5024930;28;20041;-67
2023/02/20 06:41:32;;;;;;;25.83;15.88;;;4.10;99.90;;;3.68;100.00;98808.00;5023777;28;20053;-67
2023/02/20 06:43:59;;;;;;;26.33;15.82;;;4.10;99.90;;;3.66;100.00;98802.88;5023091;28;20045;-66
2023/02/20 06:46:26;;;;;;;30.42;15.68;;;4.00;99.90;;;3.73;100.00;98807.16;5041306;28;20052;-66
2023/02/20 06:48:58;;;;;;;30.90;14.38;;;4.00;99.90;;;3.69;100.00;98809.72;5026070;28;20055;-66
2023/02/20 06:51:32;;;;;;;34.92;15.93;;;4.00;99.90;;;3.74;100.00;98803.78;5035274;28;20046;-67
2023/02/20 06:54:02;;;;;;;29.08;15.73;;;4.00;99.90;;;3.77;100.00;98801.19;5010468;28;20503;-66
2023/02/20 06:56:33;;;;;;;29.52;15.68;;;4.00;99.90;;;3.81;100.00;98801.19;5025585;28;20045;-66
2023/02/20 06:59:02;;;;;;;28.80;14.52;;;4.10;99.90;;;3.85;100.00;98808.06;5021545;28;20049;-66
2023/02/20 07:01:38;;;;;;;28.77;14.60;;;4.10;99.90;;;3.75;100.00;98802.06;5025864;28;20060;-66
2023/02/20 07:04:08;;;;;;;29.83;14.23;;;4.10;99.90;;;3.75;100.00;98814.88;5025102;28;20049;-66
2023/02/20 07:06:36;;;;;;;33.28;15.20;;;4.10;99.90;;;3.88;100.00;98808.09;5032175;28;20095;-66
2023/02/20 07:09:03;;;;;;;31.73;16.23;;;4.20;99.90;;;3.63;100.00;98822.56;5026706;28;20053;-66
2023/02/20 07:11:30;;;;;;;38.80;17.95;;;4.20;99.90;;;3.70;100.00;98826.84;5024268;28;20142;-66
2023/02/20 07:13:57;;;;;;;34.05;16.65;;;4.20;99.90;;;3.83;100.00;98818.38;5026552;28;20053;-66
2023/02/20 07:16:24;;;;;;;27.38;17.45;;;4.20;99.90;;;3.78;100.00;98815.75;5022996;28;20042;-66
2023/02/20 07:18:51;;;;;;;28.63;17.02;;;4.20;99.90;;;3.72;100.00;98823.44;5022650;28;20045;-66
2023/02/20 07:21:18;;;;;;;42.60;17.75;;;4.20;99.90;;;3.64;100.00;98814.84;5020323;28;21048;-66
2023/02/20 07:23:45;;;;;;;30.00;16.17;;;4.20;99.90;;;3.69;100.00;98818.28;5024891;28;20145;-66
2023/02/20 07:26:25;;;;;;;29.15;17.00;;;4.20;99.90;;;3.84;100.00;98814.09;5025079;28;20053;-66
2023/02/20 07:28:54;;;;;;;39.63;18.67;;;4.20;99.90;;;3.79;100.00;98814.06;5021828;28;20826;-66
2023/02/20 07:31:21;;;;;;;33.03;17.17;;;4.30;99.90;;;3.77;100.00;98828.59;5025131;28;20053;-67
2023/02/20 07:33:51;;;;;;;34.40;17.52;;;4.20;99.90;;;3.84;100.00;98832.06;5024440;28;20060;-67
2023/02/20 07:36:18;;;;;;;26.40;15.85;;;4.40;99.90;;;3.83;100.00;98827.75;5025343;28;20053;-66
2023/02/20 07:38:57;;;;;;;30.05;15.88;;;4.40;99.90;;;3.94;100.00;98820.94;5020736;28;20057;-66
2023/02/20 07:41:31;;;;;;;38.40;17.42;;;4.40;99.90;;;3.93;100.00;98827.81;5022189;28;20508;-66
2023/02/20 07:43:58;;;;;;;28.00;15.88;;;4.50;99.90;;;4.07;100.00;98830.44;5022419;28;21200;-66
2023/02/20 07:46:25;;;;;;;27.75;15.02;;;4.50;99.90;;;4.11;100.00;98832.16;5021188;28;20061;-66
2023/02/20 07:48:52;;;;;;;26.08;14.43;;;4.50;99.90;;;4.14;100.00;98831.31;5017296;28;20052;-66
2023/02/20 07:51:19;;;;;;;26.58;13.43;;;4.60;99.90;;;4.22;100.00;98823.63;5021794;28;20130;-66
2023/02/20 07:53:51;;;;;;;20.70;13.00;;;4.60;99.90;;;4.35;100.00;98831.34;5021855;28;20128;-66
2023/02/20 07:56:20;;;;;;;31.35;13.68;;;4.70;99.90;;;4.28;100.00;98823.63;5024077;28;20071;-66
2023/02/20 07:58:48;;;;;;;27.63;14.25;;;4.80;99.90;;;4.29;100.00;98823.66;5003701;28;20049;-66
2023/02/20 08:01:16;;;;;;;28.52;13.95;;;4.80;99.90;;;4.50;100.00;98819.41;5022848;28;20041;-66
2023/02/20 08:03:43;;;;;;;18.88;11.65;;;4.90;99.90;;;4.80;100.00;98814.28;5019866;28;20050;-66
2023/02/20 08:06:10;;;;;;;25.17;13.13;;;5.00;99.90;;;4.95;100.00;98815.13;5019381;28;20049;-66
2023/02/20 08:08:38;;;;;;;25.17;12.38;;;5.20;99.90;;;5.00;100.00;98814.28;5018815;28;20052;-66
2023/02/20 08:11:06;;;;;;;27.95;11.63;;;5.40;99.90;;;5.20;100.00;98806.56;5020610;28;20049;-66
2023/02/20 08:13:37;;;;;;;23.25;11.52;;;5.50;99.90;;;5.52;100.00;98791.88;5022333;28;20744;-66
2023/02/20 08:16:04;;;;;;;25.00;11.23;;;5.70;99.90;;;5.39;100.00;98802.22;5020663;28;20575;-66
2023/02/20 08:18:31;;;;;;;28.23;12.88;;;5.80;99.90;;;5.43;100.00;98788.50;5024280;28;20123;-66
2023/02/20 08:20:58;;;;;;;26.25;11.40;;;6.20;99.90;;;5.63;100.00;98790.13;5020219;28;20046;-66
2023/02/20 08:23:25;;;;;;;22.85;10.38;;;6.30;99.90;;;5.91;100.00;98777.13;5023069;28;20133;-66
2023/02/20 08:25:53;;;;;;;18.98;9.70;;;;;;;6.72;100.00;98770.66;5025763;28;20049;-67
2023/02/20 08:28:20;;;;;;;18.17;9.80;;;6.80;99.90;;;6.70;100.00;98760.34;5023476;28;20534;-67
2023/02/20 08:30:47;;;;;;;22.42;10.88;;;6.90;99.90;;;6.10;100.00;98753.03;5038314;28;20042;-67
2023/02/20 08:33:14;;;;;;;20.98;8.88;;;7.00;99.90;;;6.72;100.00;98731.97;5019611;28;20049;-67
2023/02/20 08:35:41;;;;;;;18.30;8.75;;;7.00;99.90;;;6.52;100.00;98732.13;5022531;28;20057;-67
2023/02/20 08:38:26;;;;;;;20.20;8.43;;;7.30;99.90;;;6.77;100.00;98717.28;5035478;28;20080;-67
2023/02/20 08:40:53;;;;;;;18.58;9.25;;;7.30;99.90;;;6.64;100.00;98717.41;5022727;28;20041;-67
2023/02/20 08:43:21;;;;;;;18.38;7.30;;;7.30;99.90;;;6.55;100.00;98711.47;5022621;28;20279;-66
2023/02/20 08:45:49;;;;;;;18.98;8.32;;;7.20;99.90;;;6.68;100.00;98700.16;5022711;28;20059;-67
2023/02/20 08:48:16;;;;;;;21.73;9.55;;;7.20;99.90;;;6.45;100.00;98695.19;5009210;28;20054;-67
2023/02/20 08:50:45;;;;;;;17.63;9.27;;;7.20;99.90;;;6.24;100.00;98706.53;5026740;28;20049;-67
2023/02/20 08:53:14;;;;;;;22.85;10.40;;;7.20;99.90;;;6.30;100.00;98703.06;5027413;28;20048;-67
2023/02/20 08:55:42;;;;;;;21.13;10.38;;;7.20;99.90;;;6.41;100.00;98701.25;5023842;28;20050;-66
2023/02/20 08:58:09;;;;;;;23.05;9.98;;;7.20;99.90;;;6.34;100.00;98703.03;5024877;28;20438;-66
2023/02/20 09:00:36;;;;;;;28.25;9.77;;;7.10;99.90;;;6.37;100.00;98704.72;5018089;28;20046;-66
2023/02/20 09:03:07;;;;;;;17.48;10.13;;;7.00;99.90;;;6.16;100.00;98690.25;5024998;28;20127;-66
2023/02/20 09:05:35;;;;;;;23.75;10.40;;;7.00;99.90;;;6.18;100.00;98693.69;5026813;28;20052;-66
2023/02/20 09:08:05;;;;;;;23.98;11.65;;;7.00;99.90;;;6.10;100.00;98700.63;5010393;28;20088;-67
2023/02/20 09:10:32;;;;;;;21.63;12.82;;;6.90;99.90;;;6.27;100.00;98696.19;5027625;28;20042;-66
2023/02/20 09:13:00;;;;;;;21.35;11.07;;;6.90;99.90;;;6.30;100.00;98713.38;5024380;28;20045;-67
2023/02/20 09:15:28;;;;;;;22.13;13.35;;;6.90;99.90;;;6.10;100.00;98704.06;5023033;28;20055;-66
2023/02/20 09:17:55;;;;;;;23.80;12.55;;;6.80;99.90;;;6.22;100.00;98718.56;5027202;28;20369;-66
2023/02/20 09:20:22;;;;;;;24.73;12.77;;;6.90;99.90;;;6.36;100.00;98710.75;5023750;28;20050;-66
2023/02/20 09:22:49;;;;;;;31.10;13.90;;;6.90;99.90;;;6.28;100.00;98721.13;5019974;28;20045;-66
2023/02/20 09:25:17;;;;;;;25.55;13.02;;;7.00;99.90;;;6.49;100.00;98709.78;5019317;28;20111;-66
2023/02/20 09:27:44;;;;;;;29.33;13.43;;;7.00;99.90;;;6.41;100.00;98704.69;5026018;28;20049;-66
2023/02/20 09:30:18;;;;;;;30.58;14.52;;;7.00;99.90;;;6.57;100.00;98710.59;5026111;28;20564;-67
2023/02/20 09:32:47;;;;;;;28.63;14.38;;;7.20;99.90;;;6.71;100.00;98713.03;5018580;28;20057;-66
2023/02/20 09:35:22;;;;;;;30.63;14.45;;;7.30;99.90;;;6.72;100.00;98681.19;5026858;28;20498;-66
2023/02/20 09:37:49;;;;;;;29.90;15.38;;;7.30;99.90;;;6.94;100.00;98674.13;5025427;28;20419;-67
2023/02/20 09:40:20;;;;;;;25.92;15.02;;;7.40;99.90;;;7.09;100.00;98668.78;5026743;28;20061;-66
2023/02/20 09:43:06;;;;;;;27.38;15.27;;;7.60;99.90;;;7.15;100.00;98659.25;5023528;28;20500;-66
2023/02/20 09:45:35;;;;;;;30.08;14.40;;;7.60;99.90;;;7.15;100.00;98667.84;5024050;28;20513;-67
2023/02/20 09:48:33;;;;;;;23.33;13.07;;;7.60;99.90;;;7.24;100.00;98666.91;5025356;28;20128;-67
2023/02/20 09:51:14;;;;;;;29.88;15.00;;;7.70;99.90;;;7.28;100.00;98664.25;5058743;28;20132;-67
2023/02/20 09:54:27;;;;;;;25.00;13.93;;;7.90;99.90;;;7.24;100.00;98656.56;5009891;28;20072;-66
2023/02/20 09:57:09;;;;;;;26.07;13.73;;;8.00;99.90;;;7.42;100.00;98621.91;5024636;28;20081;-66
2023/02/20 09:59:51;;;;;;;26.13;13.05;;;8.10;99.90;;;7.18;100.00;98641.13;5023153;28;20048;-67
2023/02/20 10:02:33;;;;;;;25.97;12.33;;;8.00;99.90;;;7.30;100.00;98643.59;5022218;28;20088;-66
2023/02/20 10:05:25;;;;;;;34.80;13.02;;;8.00;99.90;;;7.41;100.00;98627.94;5022327;28;20308;-66
2023/02/20 10:07:52;;;;;;;23.02;13.43;;;8.10;99.90;;;7.24;100.00;98638.50;5024558;28;20076;-67
2023/02/20 10:10:37;;;;;;;27.10;14.00;;;8.10;99.90;;;7.24;100.00;98610.94;5024577;28;20064;-66
2023/02/20 10:13:29;;;;;;;31.13;14.45;;;8.20;99.90;;;7.30;100.00;98636.69;5024646;28;20053;-66
2023/02/20 10:16:17;;;;;;;28.40;13.70;;;8.10;99.90;;;7.47;100.00;98638.19;5024647;28;20085;-66
2023/02/20 10:19:22;;;;;;;28.45;13.85;;;8.30;99.90;;;7.59;100.00;98653.53;5024315;28;20053;-65
2023/02/20 10:22:40;;;;;;;23.73;13.50;;;8.30;99.90;;;7.64;100.00;98619.88;5022320;28;20155;-66
2023/02/20 10:25:44;;;;;;;26.33;13.18;;;8.40;99.90;;;7.85;100.00;98629.91;4994133;28;20053;-66
2023/02/20 10:28:17;;;;;;;23.20;13.02;;;8.50;99.90;;;7.83;100.00;98639.41;5008666;28;20504;-65
2023/02/20 10:31:15;;;;;;;23.85;13.05;;;8.50;99.90;;;7.51;100.00;98657.97;5010678;28;20061;-65
2023/02/20 10:33:49;;;;;;;28.08;12.65;;;8.60;99.90;;;7.56;100.00;98656.16;5021738;28;20061;-66
2023/02/20 10:36:29;;;;;;;25.70;12.23;;;8.70;99.90;;;7.56;100.00;98643.25;5025861;28;20124;-66
2023/02/20 10:39:06;;;;;;;27.75;12.02;;;8.70;99.90;;;7.84;100.00;98642.84;5024676;28;20372;-66
2023/02/20 10:41:59;;;;;;;23.73;12.57;;;8.80;99.90;;;8.09;100.00;98626.09;5022901;28;20060;-65
2023/02/20 10:44:55;;;;;;;20.65;10.93;;;8.80;99.90;;;8.02;100.00;98621.91;5027875;28;20069;-65
2023/02/20 10:47:35;;;;;;;24.92;12.75;;;8.70;99.90;;;8.13;100.00;98616.56;5021937;28;20054;-65
2023/02/20 10:50:07;;;;;;;21.15;11.50;;;8.80;99.90;;;8.37;100.00;98608.41;5024126;28;20049;-65
2023/02/20 10:53:15;;;;;;;23.45;12.30;;;8.90;99.90;;;8.22;100.00;98610.38;5023723;28;20677;-67
2023/02/20 10:56:00;;;;;;;22.30;11.43;;;8.90;99.90;;;8.31;100.00;98615.41;5036721;28;20967;-64
2023/02/20 10:58:37;;;;;;;20.85;10.25;;;9.10;99.90;;;8.42;100.00;98616.13;5025041;28;20132;-66
2023/02/20 11:01:13;;;;;;;16.15;9.48;;;9.20;99.90;;;8.33;100.00;98601.56;5001522;28;20153;-65
2023/02/20 11:04:14;;;;;;;18.85;10.55;;;9.20;99.90;;;8.50;100.00;98609.06;5022660;28;20041;-65